sensor_id;sensor_type;location;lat;lon;timestamp;pressure;altitude;pressure_sealevel;temperature;humidity
19526;BME280;9907;42.676;26.348;2023-06-19T00:00:08;99320.16;;;22.16;71.90
19526;BME280;9907;42.676;26.348;2023-06-19T00:02:41;99318.66;;;22.20;72.05
19526;BME280;9907;42.676;26.348;2023-06-19T00:05:08;99325.09;;;22.19;72.62
19526;BME280;9907;42.676;26.348;2023-06-19T00:07:35;99322.41;;;22.19;72.13
19526;BME280;9907;42.676;26.348;2023-06-19T00:10:01;99314.66;;;22.23;72.66
19526;BME280;9907;42.676;26.348;2023-06-19T00:12:26;99307.84;;;22.20;72.76
19526;BME280;9907;42.676;26.348;2023-06-19T00:14:52;99332.38;;;22.19;72.73
19526;BME280;9907;42.676;26.348;2023-06-19T00:17:17;99318.03;;;22.18;72.27
19526;BME280;9907;42.676;26.348;2023-06-19T00:19:44;99307.59;;;22.22;72.10
19526;BME280;9907;42.676;26.348;2023-06-19T00:22:09;99308.03;;;22.19;72.84
19526;BME280;9907;42.676;26.348;2023-06-19T00:24:35;99331.78;;;22.17;72.85
19526;BME280;9907;42.676;26.348;2023-06-19T00:27:00;99317.44;;;22.16;72.83
19526;BME280;9907;42.676;26.348;2023-06-19T00:29:28;99316.38;;;22.17;72.54
19526;BME280;9907;42.676;26.348;2023-06-19T00:31:53;99317.00;;;22.19;73.24
19526;BME280;9907;42.676;26.348;2023-06-19T00:34:19;99327.44;;;22.16;72.42
19526;BME280;9907;42.676;26.348;2023-06-19T00:36:44;99316.00;;;22.14;72.99
19526;BME280;9907;42.676;26.348;2023-06-19T00:39:10;99332.84;;;22.16;72.91
19526;BME280;9907;42.676;26.348;2023-06-19T00:41:36;99324.34;;;22.12;73.64
19526;BME280;9907;42.676;26.348;2023-06-19T00:44:02;99335.00;;;22.07;74.72
19526;BME280;9907;42.676;26.348;2023-06-19T00:46:28;99314.34;;;22.13;74.01
19526;BME280;9907;42.676;26.348;2023-06-19T00:48:54;99350.75;;;22.10;74.42
19526;BME280;9907;42.676;26.348;2023-06-19T00:51:19;99324.78;;;22.09;74.53
19526;BME280;9907;42.676;26.348;2023-06-19T00:53:45;99337.09;;;22.05;74.76
19526;BME280;9907;42.676;26.348;2023-06-19T00:56:11;99336.84;;;22.07;74.89
19526;BME280;9907;42.676;26.348;2023-06-19T00:58:37;99337.69;;;22.07;74.60
19526;BME280;9907;42.676;26.348;2023-06-19T01:01:02;99344.13;;;22.06;74.34
19526;BME280;9907;42.676;26.348;2023-06-19T01:03:28;99350.63;;;22.05;74.36
19526;BME280;9907;42.676;26.348;2023-06-19T01:05:54;99350.63;;;22.05;73.70
19526;BME280;9907;42.676;26.348;2023-06-19T01:08:51;99341.88;;;22.03;73.76
19526;BME280;9907;42.676;26.348;2023-06-19T01:11:23;99334.59;;;22.04;73.61
19526;BME280;9907;42.676;26.348;2023-06-19T01:14:21;99338.97;;;22.05;73.38
19526;BME280;9907;42.676;26.348;2023-06-19T01:16:50;99356.84;;;22.06;72.74
19526;BME280;9907;42.676;26.348;2023-06-19T01:19:19;99338.34;;;22.03;73.19
19526;BME280;9907;42.676;26.348;2023-06-19T01:21:46;99345.22;;;22.05;72.98
19526;BME280;9907;42.676;26.348;2023-06-19T01:24:12;99351.50;;;21.99;73.31
19526;BME280;9907;42.676;26.348;2023-06-19T01:26:38;99362.53;;;21.98;73.05
19526;BME280;9907;42.676;26.348;2023-06-19T01:29:04;99343.38;;;21.99;72.67
19526;BME280;9907;42.676;26.348;2023-06-19T01:34:20;99343.75;;;22.03;72.58
19526;BME280;9907;42.676;26.348;2023-06-19T01:36:48;99349.41;;;22.01;73.01
19526;BME280;9907;42.676;26.348;2023-06-19T01:39:16;99353.16;;;22.00;72.85
19526;BME280;9907;42.676;26.348;2023-06-19T01:41:44;99339.63;;;22.00;73.21
19526;BME280;9907;42.676;26.348;2023-06-19T01:44:10;99343.56;;;22.04;72.59
19526;BME280;9907;42.676;26.348;2023-06-19T01:46:36;99353.09;;;22.07;72.33
19526;BME280;9907;42.676;26.348;2023-06-19T01:49:01;99349.34;;;22.08;72.62
19526;BME280;9907;42.676;26.348;2023-06-19T01:51:31;99348.50;;;22.07;72.33
19526;BME280;9907;42.676;26.348;2023-06-19T01:53:56;99350.16;;;22.08;71.83
19526;BME280;9907;42.676;26.348;2023-06-19T01:56:22;99352.69;;;22.03;71.88
19526;BME280;9907;42.676;26.348;2023-06-19T01:58:49;99373.50;;;22.03;71.56
19526;BME280;9907;42.676;26.348;2023-06-19T02:01:14;99355.41;;;22.03;72.01
19526;BME280;9907;42.676;26.348;2023-06-19T02:03:40;99353.53;;;22.04;72.15
19526;BME280;9907;42.676;26.348;2023-06-19T02:06:05;99331.69;;;22.05;72.75
19526;BME280;9907;42.676;26.348;2023-06-19T02:08:32;99353.53;;;22.04;72.12
19526;BME280;9907;42.676;26.348;2023-06-19T02:10:57;99354.38;;;22.04;71.74
19526;BME280;9907;42.676;26.348;2023-06-19T02:13:23;99345.50;;;21.97;73.05
19526;BME280;9907;42.676;26.348;2023-06-19T02:15:48;99369.38;;;22.00;72.86
19526;BME280;9907;42.676;26.348;2023-06-19T02:18:14;99366.84;;;22.05;72.78
19526;BME280;9907;42.676;26.348;2023-06-19T02:20:40;99355.41;;;22.03;73.35
19526;BME280;9907;42.676;26.348;2023-06-19T02:23:05;99360.44;;;22.00;73.59
19526;BME280;9907;42.676;26.348;2023-06-19T02:25:30;99378.50;;;22.06;72.60
19526;BME280;9907;42.676;26.348;2023-06-19T02:27:56;99371.41;;;22.05;72.21
19526;BME280;9907;42.676;26.348;2023-06-19T02:30:22;99372.25;;;22.05;72.90
19526;BME280;9907;42.676;26.348;2023-06-19T02:32:47;99390.72;;;22.08;72.10
19526;BME280;9907;42.676;26.348;2023-06-19T02:35:13;99396.13;;;22.08;72.07
19526;BME280;9907;42.676;26.348;2023-06-19T02:37:40;99369.31;;;22.07;72.90
19526;BME280;9907;42.676;26.348;2023-06-19T02:40:06;99386.44;;;22.01;72.55
19526;BME280;9907;42.676;26.348;2023-06-19T02:42:32;99395.47;;;22.13;72.11
19526;BME280;9907;42.676;26.348;2023-06-19T02:44:58;99404.44;;;22.13;71.46
19526;BME280;9907;42.676;26.348;2023-06-19T02:47:32;99402.97;;;22.11;71.84
19526;BME280;9907;42.676;26.348;2023-06-19T02:50:02;99411.72;;;22.06;72.48
19526;BME280;9907;42.676;26.348;2023-06-19T02:52:29;99407.53;;;22.10;72.03
19526;BME280;9907;42.676;26.348;2023-06-19T02:54:55;99397.41;;;22.06;73.31
19526;BME280;9907;42.676;26.348;2023-06-19T02:57:21;99414.69;;;22.05;72.24
19526;BME280;9907;42.676;26.348;2023-06-19T02:59:46;99415.84;;;22.15;69.37
19526;BME280;9907;42.676;26.348;2023-06-19T03:02:12;99408.75;;;22.14;70.30
19526;BME280;9907;42.676;26.348;2023-06-19T03:04:37;99414.81;;;22.10;70.71
19526;BME280;9907;42.676;26.348;2023-06-19T03:07:03;99417.94;;;22.13;70.26
19526;BME280;9907;42.676;26.348;2023-06-19T03:09:29;99416.28;;;22.12;71.51
19526;BME280;9907;42.676;26.348;2023-06-19T03:11:54;99411.31;;;22.09;72.06
19526;BME280;9907;42.676;26.348;2023-06-19T03:14:20;99419.19;;;22.11;71.16
19526;BME280;9907;42.676;26.348;2023-06-19T03:16:45;99416.28;;;22.12;70.95
19526;BME280;9907;42.676;26.348;2023-06-19T03:19:11;99417.25;;;22.18;71.39
19526;BME280;9907;42.676;26.348;2023-06-19T03:21:36;99430.19;;;22.16;72.05
19526;BME280;9907;42.676;26.348;2023-06-19T03:24:02;99436.47;;;22.10;71.55
19526;BME280;9907;42.676;26.348;2023-06-19T03:26:27;99440.44;;;22.07;72.20
19526;BME280;9907;42.676;26.348;2023-06-19T03:28:53;99432.50;;;22.12;72.34
19526;BME280;9907;42.676;26.348;2023-06-19T03:31:19;99420.03;;;22.11;72.59
19526;BME280;9907;42.676;26.348;2023-06-19T03:33:44;99443.75;;;22.09;70.96
19526;BME280;9907;42.676;26.348;2023-06-19T03:36:09;99439.56;;;22.13;70.46
19526;BME280;9907;42.676;26.348;2023-06-19T03:38:35;99454.59;;;22.09;71.99
19526;BME280;9907;42.676;26.348;2023-06-19T03:41:01;99454.78;;;22.08;71.92
19526;BME280;9907;42.676;26.348;2023-06-19T03:43:26;99455.38;;;22.10;71.83
19526;BME280;9907;42.676;26.348;2023-06-19T03:45:52;99454.13;;;22.12;72.37
19526;BME280;9907;42.676;26.348;2023-06-19T03:48:17;99459.81;;;22.04;73.69
19526;BME280;9907;42.676;26.348;2023-06-19T03:50:43;99466.25;;;22.03;75.13
19526;BME280;9907;42.676;26.348;2023-06-19T03:53:09;99469.59;;;22.05;74.66
19526;BME280;9907;42.676;26.348;2023-06-19T03:55:34;99469.41;;;22.00;77.26
19526;BME280;9907;42.676;26.348;2023-06-19T03:58:00;99462.56;;;21.98;76.44
19526;BME280;9907;42.676;26.348;2023-06-19T04:00:25;99463.34;;;22.05;74.35
19526;BME280;9907;42.676;26.348;2023-06-19T04:02:51;99465.00;;;22.06;74.62
19526;BME280;9907;42.676;26.348;2023-06-19T04:05:17;99463.72;;;22.08;75.44
19526;BME280;9907;42.676;26.348;2023-06-19T04:07:42;99479.31;;;22.06;76.95
19526;BME280;9907;42.676;26.348;2023-06-19T04:10:08;99483.53;;;22.02;75.88
19526;BME280;9907;42.676;26.348;2023-06-19T04:12:33;99476.63;;;22.06;76.14
19526;BME280;9907;42.676;26.348;2023-06-19T04:14:59;99476.88;;;22.05;74.88
19526;BME280;9907;42.676;26.348;2023-06-19T04:17:24;99478.72;;;22.04;76.83
19526;BME280;9907;42.676;26.348;2023-06-19T04:19:50;99480.53;;;22.17;75.17
19526;BME280;9907;42.676;26.348;2023-06-19T04:22:15;99494.50;;;22.07;74.81
19526;BME280;9907;42.676;26.348;2023-06-19T04:24:41;99485.41;;;22.02;75.09
19526;BME280;9907;42.676;26.348;2023-06-19T04:27:06;99482.66;;;22.08;75.16
19526;BME280;9907;42.676;26.348;2023-06-19T04:29:34;99488.50;;;22.05;74.22
19526;BME280;9907;42.676;26.348;2023-06-19T04:31:59;99483.22;;;22.17;73.77
19526;BME280;9907;42.676;26.348;2023-06-19T04:34:25;99452.03;;;22.14;73.06
19526;BME280;9907;42.676;26.348;2023-06-19T04:36:51;99457.13;;;22.54;72.43
19526;BME280;9907;42.676;26.348;2023-06-19T04:39:17;99486.88;;;22.54;70.99
19526;BME280;9907;42.676;26.348;2023-06-19T04:41:43;99464.25;;;22.66;70.52
19526;BME280;9907;42.676;26.348;2023-06-19T04:44:09;99469.72;;;23.03;69.29
19526;BME280;9907;42.676;26.348;2023-06-19T04:46:37;99480.94;;;23.24;67.98
19526;BME280;9907;42.676;26.348;2023-06-19T04:49:03;99486.19;;;23.38;67.25
19526;BME280;9907;42.676;26.348;2023-06-19T04:51:30;99470.59;;;23.69;66.70
19526;BME280;9907;42.676;26.348;2023-06-19T04:53:56;99477.28;;;23.97;65.28
19526;BME280;9907;42.676;26.348;2023-06-19T04:56:22;99496.84;;;23.87;64.34
19526;BME280;9907;42.676;26.348;2023-06-19T04:58:47;99494.19;;;23.51;65.16
19526;BME280;9907;42.676;26.348;2023-06-19T05:01:14;99498.28;;;23.42;65.98
19526;BME280;9907;42.676;26.348;2023-06-19T05:03:42;99498.38;;;23.28;67.14
19526;BME280;9907;42.676;26.348;2023-06-19T05:06:08;99502.22;;;23.21;65.87
19526;BME280;9907;42.676;26.348;2023-06-19T05:08:34;99487.88;;;23.39;69.14
19526;BME280;9907;42.676;26.348;2023-06-19T05:10:59;99484.63;;;23.48;66.85
19526;BME280;9907;42.676;26.348;2023-06-19T05:13:25;99495.28;;;23.80;66.14
19526;BME280;9907;42.676;26.348;2023-06-19T05:15:50;99499.94;;;24.02;63.84
19526;BME280;9907;42.676;26.348;2023-06-19T05:18:16;99491.41;;;24.17;64.63
19526;BME280;9907;42.676;26.348;2023-06-19T05:20:42;99486.50;;;24.07;64.07
19526;BME280;9907;42.676;26.348;2023-06-19T05:23:07;99490.50;;;23.93;64.71
19526;BME280;9907;42.676;26.348;2023-06-19T05:25:33;99484.91;;;23.88;64.81
19526;BME280;9907;42.676;26.348;2023-06-19T05:27:58;99485.16;;;23.57;66.54
19526;BME280;9907;42.676;26.348;2023-06-19T05:30:24;99491.47;;;23.33;64.83
19526;BME280;9907;42.676;26.348;2023-06-19T05:32:49;99484.28;;;23.45;66.12
19526;BME280;9907;42.676;26.348;2023-06-19T05:35:15;99489.22;;;23.48;65.49
19526;BME280;9907;42.676;26.348;2023-06-19T05:37:40;99486.97;;;23.26;67.25
19526;BME280;9907;42.676;26.348;2023-06-19T05:40:09;99486.81;;;23.21;68.43
19526;BME280;9907;42.676;26.348;2023-06-19T05:42:35;99494.09;;;23.21;68.74
19526;BME280;9907;42.676;26.348;2023-06-19T05:45:01;99482.75;;;23.49;67.00
19526;BME280;9907;42.676;26.348;2023-06-19T05:47:28;99481.78;;;24.03;65.79
19526;BME280;9907;42.676;26.348;2023-06-19T05:49:54;99487.81;;;24.58;64.58
19526;BME280;9907;42.676;26.348;2023-06-19T05:52:20;99500.81;;;24.79;61.99
19526;BME280;9907;42.676;26.348;2023-06-19T05:54:46;99505.53;;;24.95;59.21
19526;BME280;9907;42.676;26.348;2023-06-19T05:57:12;99504.34;;;25.14;58.78
19526;BME280;9907;42.676;26.348;2023-06-19T05:59:37;99508.56;;;25.34;59.24
19526;BME280;9907;42.676;26.348;2023-06-19T06:02:03;99506.25;;;25.65;58.89
19526;BME280;9907;42.676;26.348;2023-06-19T06:04:29;99509.81;;;25.94;57.44
19526;BME280;9907;42.676;26.348;2023-06-19T06:06:56;99507.78;;;26.30;56.85
19526;BME280;9907;42.676;26.348;2023-06-19T06:09:21;99503.41;;;26.62;56.53
19526;BME280;9907;42.676;26.348;2023-06-19T06:11:47;99497.56;;;26.70;55.88
19526;BME280;9907;42.676;26.348;2023-06-19T06:14:13;99502.81;;;26.43;55.04
19526;BME280;9907;42.676;26.348;2023-06-19T06:16:39;99512.28;;;26.24;54.84
19526;BME280;9907;42.676;26.348;2023-06-19T06:19:04;99522.13;;;26.58;55.12
19526;BME280;9907;42.676;26.348;2023-06-19T06:21:31;99525.63;;;26.71;53.72
19526;BME280;9907;42.676;26.348;2023-06-19T06:23:56;99536.44;;;26.82;54.07
19526;BME280;9907;42.676;26.348;2023-06-19T06:26:21;99538.84;;;27.34;51.40
19526;BME280;9907;42.676;26.348;2023-06-19T06:28:47;99549.16;;;27.32;51.38
19526;BME280;9907;42.676;26.348;2023-06-19T06:31:13;99549.03;;;27.22;50.61
19526;BME280;9907;42.676;26.348;2023-06-19T06:33:38;99550.22;;;27.47;52.51
19526;BME280;9907;42.676;26.348;2023-06-19T06:36:04;99564.03;;;27.41;53.10
19526;BME280;9907;42.676;26.348;2023-06-19T06:38:29;99564.50;;;27.16;52.93
19526;BME280;9907;42.676;26.348;2023-06-19T06:40:55;99554.34;;;27.50;52.41
19526;BME280;9907;42.676;26.348;2023-06-19T06:43:20;99549.88;;;27.82;52.63
19526;BME280;9907;42.676;26.348;2023-06-19T06:45:46;99552.28;;;28.05;51.63
19526;BME280;9907;42.676;26.348;2023-06-19T06:48:11;99553.16;;;27.84;51.78
19526;BME280;9907;42.676;26.348;2023-06-19T06:50:37;99561.16;;;27.69;50.83
19526;BME280;9907;42.676;26.348;2023-06-19T06:53:02;99559.06;;;27.54;51.60
19526;BME280;9907;42.676;26.348;2023-06-19T06:55:28;99570.50;;;27.18;52.05
19526;BME280;9907;42.676;26.348;2023-06-19T06:57:54;99560.09;;;26.20;54.07
19526;BME280;9907;42.676;26.348;2023-06-19T07:00:19;99563.16;;;26.52;53.08
19526;BME280;9907;42.676;26.348;2023-06-19T07:02:45;99562.53;;;26.95;52.51
19526;BME280;9907;42.676;26.348;2023-06-19T07:05:13;99561.66;;;26.61;53.71
19526;BME280;9907;42.676;26.348;2023-06-19T07:07:38;99564.72;;;26.81;53.41
19526;BME280;9907;42.676;26.348;2023-06-19T07:10:05;99564.59;;;27.04;52.88
19526;BME280;9907;42.676;26.348;2023-06-19T07:12:30;99575.56;;;27.09;52.72
19526;BME280;9907;42.676;26.348;2023-06-19T07:14:56;99576.00;;;27.40;52.73
19526;BME280;9907;42.676;26.348;2023-06-19T07:17:22;99583.09;;;27.57;51.10
19526;BME280;9907;42.676;26.348;2023-06-19T07:19:47;99578.06;;;27.49;50.33
19526;BME280;9907;42.676;26.348;2023-06-19T07:22:13;99578.53;;;27.63;51.07
19526;BME280;9907;42.676;26.348;2023-06-19T07:24:40;99587.34;;;27.48;50.85
19526;BME280;9907;42.676;26.348;2023-06-19T07:27:06;99587.16;;;27.55;50.97
19526;BME280;9907;42.676;26.348;2023-06-19T07:29:31;99597.19;;;26.99;51.44
19526;BME280;9907;42.676;26.348;2023-06-19T07:31:58;99590.75;;;26.89;52.90
19526;BME280;9907;42.676;26.348;2023-06-19T07:34:23;99593.31;;;26.79;51.34
19526;BME280;9907;42.676;26.348;2023-06-19T07:36:49;99591.59;;;26.89;52.68
19526;BME280;9907;42.676;26.348;2023-06-19T07:39:14;99599.09;;;26.99;51.99
19526;BME280;9907;42.676;26.348;2023-06-19T07:41:40;99601.88;;;26.26;53.41
19526;BME280;9907;42.676;26.348;2023-06-19T07:44:05;99600.69;;;25.82;53.98
19526;BME280;9907;42.676;26.348;2023-06-19T07:46:31;99591.88;;;26.31;54.13
19526;BME280;9907;42.676;26.348;2023-06-19T07:48:56;99599.19;;;26.87;52.91
19526;BME280;9907;42.676;26.348;2023-06-19T07:51:22;99604.00;;;26.52;53.00
19526;BME280;9907;42.676;26.348;2023-06-19T07:53:47;99603.16;;;26.35;53.24
19526;BME280;9907;42.676;26.348;2023-06-19T07:56:12;99608.44;;;26.01;53.66
19526;BME280;9907;42.676;26.348;2023-06-19T07:58:38;99609.38;;;26.35;53.91
19526;BME280;9907;42.676;26.348;2023-06-19T08:01:03;99615.03;;;26.45;52.77
19526;BME280;9907;42.676;26.348;2023-06-19T08:03:29;99621.50;;;26.56;53.10
19526;BME280;9907;42.676;26.348;2023-06-19T08:05:55;99617.75;;;25.54;55.15
19526;BME280;9907;42.676;26.348;2023-06-19T08:08:21;99622.63;;;25.52;55.55
19526;BME280;9907;42.676;26.348;2023-06-19T08:10:47;99617.94;;;25.87;54.69
19526;BME280;9907;42.676;26.348;2023-06-19T08:13:12;99620.72;;;25.52;55.12
19526;BME280;9907;42.676;26.348;2023-06-19T08:15:38;99618.22;;;25.51;55.27
19526;BME280;9907;42.676;26.348;2023-06-19T08:18:03;99629.56;;;25.48;55.47
19526;BME280;9907;42.676;26.348;2023-06-19T08:20:29;99633.50;;;25.52;55.78
19526;BME280;9907;42.676;26.348;2023-06-19T08:22:55;99629.56;;;25.71;55.77
19526;BME280;9907;42.676;26.348;2023-06-19T08:25:21;99630.50;;;25.65;55.95
19526;BME280;9907;42.676;26.348;2023-06-19T08:27:47;99638.06;;;25.40;56.54
19526;BME280;9907;42.676;26.348;2023-06-19T08:30:12;99632.31;;;25.59;55.86
19526;BME280;9907;42.676;26.348;2023-06-19T08:32:38;99648.75;;;25.53;55.69
19526;BME280;9907;42.676;26.348;2023-06-19T08:35:04;99649.78;;;25.40;56.16
19526;BME280;9907;42.676;26.348;2023-06-19T08:37:29;99641.84;;;25.39;56.06
19526;BME280;9907;42.676;26.348;2023-06-19T08:39:55;99643.75;;;25.73;55.66
19526;BME280;9907;42.676;26.348;2023-06-19T08:42:21;99638.91;;;25.63;55.11
19526;BME280;9907;42.676;26.348;2023-06-19T08:44:48;99638.50;;;25.83;55.06
19526;BME280;9907;42.676;26.348;2023-06-19T08:47:14;99640.69;;;25.58;55.80
19526;BME280;9907;42.676;26.348;2023-06-19T08:49:42;99643.75;;;25.61;55.49
19526;BME280;9907;42.676;26.348;2023-06-19T08:52:08;99643.88;;;25.78;55.68
19526;BME280;9907;42.676;26.348;2023-06-19T08:54:33;99643.53;;;25.63;55.63
19526;BME280;9907;42.676;26.348;2023-06-19T08:57:02;99644.81;;;25.49;56.24
19526;BME280;9907;42.676;26.348;2023-06-19T08:59:29;99639.75;;;25.64;56.11
19526;BME280;9907;42.676;26.348;2023-06-19T09:01:57;99639.75;;;25.64;55.97
19526;BME280;9907;42.676;26.348;2023-06-19T09:04:25;99635.84;;;25.72;56.62
19526;BME280;9907;42.676;26.348;2023-06-19T09:06:58;99637.25;;;25.74;57.42
19526;BME280;9907;42.676;26.348;2023-06-19T09:09:25;99646.59;;;25.78;56.97
19526;BME280;9907;42.676;26.348;2023-06-19T09:14:35;99635.16;;;25.53;56.41
19526;BME280;9907;42.676;26.348;2023-06-19T09:17:02;99635.72;;;25.55;56.39
19526;BME280;9907;42.676;26.348;2023-06-19T09:19:28;99634.16;;;25.82;56.16
19526;BME280;9907;42.676;26.348;2023-06-19T09:21:59;99633.56;;;25.80;55.75
19526;BME280;9907;42.676;26.348;2023-06-19T09:24:36;99633.78;;;25.90;56.51
19526;BME280;9907;42.676;26.348;2023-06-19T09:27:07;99623.91;;;26.12;56.32
19526;BME280;9907;42.676;26.348;2023-06-19T09:29:38;99632.34;;;25.88;56.70
19526;BME280;9907;42.676;26.348;2023-06-19T09:32:24;99624.81;;;25.90;55.34
19526;BME280;9907;42.676;26.348;2023-06-19T09:34:51;99620.75;;;25.92;55.93
19526;BME280;9907;42.676;26.348;2023-06-19T09:39:57;99621.66;;;26.09;56.63
19526;BME280;9907;42.676;26.348;2023-06-19T09:44:57;99613.41;;;26.04;56.46
19526;BME280;9907;42.676;26.348;2023-06-19T09:47:25;99610.31;;;26.12;55.74
19526;BME280;9907;42.676;26.348;2023-06-19T09:49:56;99606.63;;;26.19;56.05
19526;BME280;9907;42.676;26.348;2023-06-19T09:52:22;99600.47;;;26.11;56.79
19526;BME280;9907;42.676;26.348;2023-06-19T09:54:53;99606.38;;;26.20;55.84
19526;BME280;9907;42.676;26.348;2023-06-19T09:57:19;99604.44;;;26.32;56.74
19526;BME280;9907;42.676;26.348;2023-06-19T09:59:51;99595.41;;;26.03;56.65
19526;BME280;9907;42.676;26.348;2023-06-19T10:02:19;99592.88;;;26.25;55.98
19526;BME280;9907;42.676;26.348;2023-06-19T10:04:53;99589.50;;;26.06;55.57
19526;BME280;9907;42.676;26.348;2023-06-19T10:07:32;99587.09;;;26.22;55.15
19526;BME280;9907;42.676;26.348;2023-06-19T10:10:06;99580.19;;;26.31;55.12
19526;BME280;9907;42.676;26.348;2023-06-19T10:12:36;99578.81;;;26.45;55.90
19526;BME280;9907;42.676;26.348;2023-06-19T10:15:18;99579.16;;;26.65;55.38
19526;BME280;9907;42.676;26.348;2023-06-19T10:18:03;99579.72;;;26.34;55.89
19526;BME280;9907;42.676;26.348;2023-06-19T10:20:36;99573.00;;;26.25;55.22
19526;BME280;9907;42.676;26.348;2023-06-19T10:25:37;99574.53;;;26.66;54.57
19526;BME280;9907;42.676;26.348;2023-06-19T10:28:04;99572.31;;;26.62;54.50
19526;BME280;9907;42.676;26.348;2023-06-19T10:30:33;99574.78;;;26.47;52.08
19526;BME280;9907;42.676;26.348;2023-06-19T10:33:00;99570.03;;;26.71;52.73
19526;BME280;9907;42.676;26.348;2023-06-19T10:35:28;99561.22;;;26.97;53.26
19526;BME280;9907;42.676;26.348;2023-06-19T10:37:54;99554.09;;;26.96;52.20
19526;BME280;9907;42.676;26.348;2023-06-19T10:40:19;99552.13;;;27.08;52.14
19526;BME280;9907;42.676;26.348;2023-06-19T10:42:46;99543.56;;;27.22;52.72
19526;BME280;9907;42.676;26.348;2023-06-19T10:45:13;99542.13;;;27.36;52.76
19526;BME280;9907;42.676;26.348;2023-06-19T10:47:41;99539.50;;;27.41;53.17
19526;BME280;9907;42.676;26.348;2023-06-19T10:50:16;99535.63;;;27.20;52.39
19526;BME280;9907;42.676;26.348;2023-06-19T10:52:44;99537.66;;;26.91;51.82
19526;BME280;9907;42.676;26.348;2023-06-19T10:55:12;99534.13;;;26.91;52.35
19526;BME280;9907;42.676;26.348;2023-06-19T10:57:40;99531.91;;;27.04;52.66
19526;BME280;9907;42.676;26.348;2023-06-19T11:00:06;99541.47;;;27.07;52.04
19526;BME280;9907;42.676;26.348;2023-06-19T11:02:41;99528.84;;;27.01;51.90
19526;BME280;9907;42.676;26.348;2023-06-19T11:05:11;99534.88;;;26.86;51.77
19526;BME280;9907;42.676;26.348;2023-06-19T11:07:37;99524.13;;;26.96;51.71
19526;BME280;9907;42.676;26.348;2023-06-19T11:10:07;99531.72;;;26.94;50.35
19526;BME280;9907;42.676;26.348;2023-06-19T11:12:43;99519.34;;;26.70;50.64
19526;BME280;9907;42.676;26.348;2023-06-19T11:15:09;99523.63;;;26.66;51.21
19526;BME280;9907;42.676;26.348;2023-06-19T11:17:35;99513.09;;;26.86;51.02
19526;BME280;9907;42.676;26.348;2023-06-19T11:20:01;99515.69;;;27.15;50.71
19526;BME280;9907;42.676;26.348;2023-06-19T11:22:36;99510.00;;;26.99;51.17
19526;BME280;9907;42.676;26.348;2023-06-19T11:25:03;99513.22;;;26.80;51.79
19526;BME280;9907;42.676;26.348;2023-06-19T11:27:30;99510.25;;;26.98;51.95
19526;BME280;9907;42.676;26.348;2023-06-19T11:29:59;99509.50;;;27.02;51.93
19526;BME280;9907;42.676;26.348;2023-06-19T11:32:33;99503.09;;;26.92;51.68
19526;BME280;9907;42.676;26.348;2023-06-19T11:35:05;99507.94;;;26.73;51.94
19526;BME280;9907;42.676;26.348;2023-06-19T11:37:34;99509.13;;;26.94;51.80
19526;BME280;9907;42.676;26.348;2023-06-19T11:40:00;99521.13;;;26.64;51.15
19526;BME280;9907;42.676;26.348;2023-06-19T11:42:25;99520.94;;;26.83;50.68
19526;BME280;9907;42.676;26.348;2023-06-19T11:45:00;99521.84;;;26.88;51.45
19526;BME280;9907;42.676;26.348;2023-06-19T11:47:32;99517.34;;;26.82;51.42
19526;BME280;9907;42.676;26.348;2023-06-19T11:49:57;99512.38;;;26.79;51.00
19526;BME280;9907;42.676;26.348;2023-06-19T11:52:23;99510.69;;;26.90;50.46
19526;BME280;9907;42.676;26.348;2023-06-19T11:54:49;99504.97;;;27.08;50.75
19526;BME280;9907;42.676;26.348;2023-06-19T11:57:14;99507.06;;;27.23;49.64
19526;BME280;9907;42.676;26.348;2023-06-19T11:59:40;99506.78;;;27.02;48.84
19526;BME280;9907;42.676;26.348;2023-06-19T12:02:07;99504.47;;;26.78;49.12
19526;BME280;9907;42.676;26.348;2023-06-19T12:04:33;99501.88;;;26.83;49.29
19526;BME280;9907;42.676;26.348;2023-06-19T12:06:59;99506.44;;;26.99;49.29
19526;BME280;9907;42.676;26.348;2023-06-19T12:09:25;99499.84;;;27.12;49.18
19526;BME280;9907;42.676;26.348;2023-06-19T12:11:51;99509.19;;;26.99;49.39
19526;BME280;9907;42.676;26.348;2023-06-19T12:14:16;99506.28;;;26.72;50.11
19526;BME280;9907;42.676;26.348;2023-06-19T12:16:43;99500.19;;;26.98;50.35
19526;BME280;9907;42.676;26.348;2023-06-19T12:19:10;99502.28;;;27.13;49.96
19526;BME280;9907;42.676;26.348;2023-06-19T12:21:36;99514.66;;;27.21;50.40
19526;BME280;9907;42.676;26.348;2023-06-19T12:24:01;99513.22;;;26.80;51.16
19526;BME280;9907;42.676;26.348;2023-06-19T12:26:27;99502.91;;;26.82;51.47
19526;BME280;9907;42.676;26.348;2023-06-19T12:28:52;99498.53;;;26.81;51.77
19526;BME280;9907;42.676;26.348;2023-06-19T12:31:18;99499.84;;;26.95;51.66
19526;BME280;9907;42.676;26.348;2023-06-19T12:33:43;99499.19;;;27.04;52.06
19526;BME280;9907;42.676;26.348;2023-06-19T12:36:16;99491.25;;;27.03;52.69
19526;BME280;9907;42.676;26.348;2023-06-19T12:38:42;99491.91;;;27.10;52.85
19526;BME280;9907;42.676;26.348;2023-06-19T12:41:07;99486.22;;;27.12;52.63
19526;BME280;9907;42.676;26.348;2023-06-19T12:43:33;99491.25;;;27.03;52.57
19526;BME280;9907;42.676;26.348;2023-06-19T12:46:00;99485.34;;;26.89;51.62
19526;BME280;9907;42.676;26.348;2023-06-19T12:48:26;99495.31;;;26.34;52.95
19526;BME280;9907;42.676;26.348;2023-06-19T12:50:55;99487.56;;;26.26;53.86
19526;BME280;9907;42.676;26.348;2023-06-19T12:53:21;99476.00;;;26.35;54.01
19526;BME280;9907;42.676;26.348;2023-06-19T12:55:52;99481.28;;;26.58;53.78
19526;BME280;9907;42.676;26.348;2023-06-19T12:58:18;99465.56;;;26.60;53.16
19526;BME280;9907;42.676;26.348;2023-06-19T13:00:44;99479.22;;;26.32;51.88
19526;BME280;9907;42.676;26.348;2023-06-19T13:03:09;99484.00;;;26.25;52.10
19526;BME280;9907;42.676;26.348;2023-06-19T13:05:35;99471.00;;;26.27;51.28
19526;BME280;9907;42.676;26.348;2023-06-19T13:08:01;99478.91;;;26.45;51.03
19526;BME280;9907;42.676;26.348;2023-06-19T13:10:26;99481.22;;;26.70;51.00